Ludowici, GA (31316)

10:38 AM EST on February 06, 2016 (GMT -0500)
Elim / Davenport Acres - Long County | | Change Station
CLOSE
Current Station
Personal Weather Station
Location: Ludowici, GA
Elevation: 89 ft
Nearby Weather Stations

Elev 89 ft 31.79 °N, 81.69 °W | Updated 1 second ago

Overcast
Overcast
49.1 °F
Feels Like 49 °F
N
0.0
Wind Variable Wind from East
Gusts 0.0 mph

Today
High -- | Low -- °F
--% Chance of Precip.
Yesterday
High -- | Low -- °F
Precip. -- in
Pressure 30.33 in
Visibility 10.0 miles
Clouds Scattered Clouds 6000 ft
Overcast 8000 ft
Windchill 49 °F
Dew Point 33 °F
Humidity 53%
Rainfall 0.00 in
Snow Depth Not available.
7:16 AM 6:05 PM
Waning Crescent, 5% visible
METAR KJES 061515Z AUTO 09008KT 10SM SCT060 OVC080 10/00 A3033 RMK AO2
Pressure 30.33 in
Visibility 10.0 miles
Clouds Scattered Clouds 6000 ft
Overcast 8000 ft
Windchill 49 °F
Dew Point 33 °F
Humidity 53%
Rainfall 0.00 in
Snow Depth Not available.
7:16 AM 6:05 PM
Waning Crescent, 5% visible
METAR KJES 061515Z AUTO 09008KT 10SM SCT060 OVC080 10/00 A3033 RMK AO2

10-Day Weather Forecast

Almanac

Astronomy

Feb. 06, 2016 Rise Set
Actual Time
Civil Twilight
Nautical Twilight
Astronomical Twilight
Moon
Length of Visible Light
Length of Day
Tomorrow will be .
, % of the Moon is Illuminated

Today's Extremes

State Highs State Lows

Community

WunderPhotos

Upload Photos

1,890,987 photos uploaded!

WunderBlog® & News

Nearby

Air Quality

  Air Quality AQ Index Pollutant
Not available.

Snow Depth

Station Depth Elevation

Earthquake Activity

City Distance Mag. Time & Date
Minimum magnitude displayed is 2.5.

Coastal Water Temperatures

Place Temperature

Stations

Nearby Weather Stations

Station Location Temp. Windchill Dew Point Humidity Wind Precip. Elev Updated Type
                   

Watches & Warnings

There are currently no watches in effect.